Time;durP1;ratioP1;P1;durP2;ratioP2;P2;SDS_P1;SDS_P2;PMS_P1;PMS_P2;Temp;Humidity;BMP_temperature;BMP_pressure;BME280_temperature;BME280_humidity;BME280_pressure;Samples;Min_cycle;Max_cycle;Signal;HPM_P1;HPM_P2
2022/04/16 00:02:05;;;;;;;29.87;19.07;;;7.80;99.90;;;;;;5019019;28;20111;-80
2022/04/16 00:04:33;;;;;;;27.63;18.43;;;7.70;99.90;;;;;;5034957;28;20082;-80
2022/04/16 00:06:59;;;;;;;27.93;17.47;;;7.70;99.90;;;;;;5036108;28;20039;-79
2022/04/16 00:09:25;;;;;;;31.67;18.27;;;7.60;99.90;;;;;;5021207;28;20044;-79
2022/04/16 00:11:51;;;;;;;27.37;18.07;;;7.60;99.90;;;;;;5036252;28;20044;-79
2022/04/16 00:14:19;;;;;;;27.77;18.30;;;7.50;99.90;;;;;;5048525;28;20143;-79
2022/04/16 00:16:46;;;;;;;26.90;17.87;;;7.50;99.90;;;;;;5055001;28;20048;-79
2022/04/16 00:19:12;;;;;;;27.50;18.60;;;7.40;99.90;;;;;;5034831;28;20048;-79
2022/04/16 00:21:39;;;;;;;30.03;18.80;;;7.40;99.90;;;;;;5048808;28;20110;-78
2022/04/16 00:24:05;;;;;;;30.10;17.80;;;7.40;99.90;;;;;;5050279;28;20058;-79
2022/04/16 00:26:30;;;;;;;32.00;19.60;;;7.30;99.90;;;;;;5032948;28;20458;-79
2022/04/16 00:29:00;;;;;;;30.63;19.47;;;7.30;99.90;;;;;;5033254;28;20033;-79
2022/04/16 00:31:28;;;;;;;33.67;20.20;;;7.20;99.90;;;;;;5035141;28;20067;-79
2022/04/16 00:33:53;;;;;;;32.37;19.67;;;7.20;99.90;;;;;;5053778;28;20055;-79
2022/04/16 00:36:20;;;;;;;30.03;18.60;;;7.10;99.90;;;;;;5020193;28;20128;-79
2022/04/16 00:38:46;;;;;;;29.53;18.80;;;7.10;99.90;;;;;;5035979;28;20108;-79
2022/04/16 00:41:13;;;;;;;29.77;19.97;;;7.10;99.90;;;;;;5011197;28;20071;-79
2022/04/16 00:43:39;;;;;;;32.50;18.20;;;7.10;99.90;;;;;;5006275;28;20072;-79
2022/04/16 00:46:04;;;;;;;35.07;20.00;;;7.00;99.90;;;;;;5039342;28;20052;-78
2022/04/16 00:48:30;;;;;;;35.07;20.53;;;7.00;99.90;;;;;;5048430;28;20527;-79
2022/04/16 00:50:56;;;;;;;34.67;20.87;;;7.00;99.90;;;;;;5001903;28;20124;-80
2022/04/16 00:53:29;;;;;;;37.30;20.70;;;7.00;99.90;;;;;;5053920;28;21036;-79
2022/04/16 00:55:58;;;;;;;34.53;20.27;;;7.00;99.90;;;;;;5049817;28;20134;-79
2022/04/16 00:58:23;;;;;;;35.40;19.30;;;6.90;99.90;;;;;;5053840;28;20041;-77
2022/04/16 01:00:49;;;;;;;35.33;20.40;;;6.90;99.90;;;;;;5034134;28;20427;-79
2022/04/16 01:03:15;;;;;;;36.97;20.67;;;6.90;99.90;;;;;;5036506;28;20055;-80
2022/04/16 01:05:41;;;;;;;34.77;19.83;;;6.90;99.90;;;;;;5018287;28;20041;-78
2022/04/16 01:08:08;;;;;;;37.90;20.23;;;6.90;99.90;;;;;;5001919;28;20037;-80
2022/04/16 01:10:34;;;;;;;34.53;20.03;;;6.90;99.90;;;;;;5048637;28;20041;-79
2022/04/16 01:13:02;;;;;;;33.27;20.20;;;6.80;99.90;;;;;;5032952;28;20064;-79
2022/04/16 01:15:31;;;;;;;38.23;20.70;;;6.80;99.90;;;;;;5036999;28;20604;-80
2022/04/16 01:17:59;;;;;;;34.07;19.97;;;6.80;99.90;;;;;;5035809;28;20037;-79
2022/04/16 01:20:25;;;;;;;34.43;20.47;;;6.80;99.90;;;;;;5030126;28;20040;-80
2022/04/16 01:22:51;;;;;;;33.03;19.17;;;6.70;99.90;;;;;;5017472;28;20597;-79
2022/04/16 01:25:18;;;;;;;39.23;20.93;;;6.70;99.90;;;;;;5034806;28;20104;-79
2022/04/16 01:27:45;;;;;;;34.13;20.13;;;6.60;99.90;;;;;;5033096;28;20040;-79
2022/04/16 01:30:18;;;;;;;35.27;21.33;;;6.70;99.90;;;;;;5017357;28;20044;-80
2022/04/16 01:32:44;;;;;;;40.60;22.80;;;6.60;99.90;;;;;;5036924;28;20054;-80
2022/04/16 01:35:10;;;;;;;37.80;20.80;;;6.60;99.90;;;;;;5020691;28;20059;-79
2022/04/16 01:37:37;;;;;;;36.93;21.50;;;6.60;99.90;;;;;;5032092;28;20092;-79
2022/04/16 01:40:08;;;;;;;36.60;21.70;;;6.60;99.90;;;;;;5032209;28;20109;-78
2022/04/16 01:42:34;;;;;;;36.53;20.90;;;6.60;99.90;;;;;;5050258;28;20044;-80
2022/04/16 01:45:09;;;;;;;40.27;23.13;;;6.60;99.90;;;;;;5053032;28;20068;-80
2022/04/16 01:47:36;;;;;;;42.27;21.03;;;6.60;99.90;;;;;;5055845;28;20040;-80
2022/04/16 01:50:07;;;;;;;40.93;23.17;;;6.50;99.90;;;;;;5036932;28;20798;-79
2022/04/16 01:52:35;;;;;;;39.30;22.23;;;6.50;99.90;;;;;;5040984;28;20104;-80
2022/04/16 01:55:01;;;;;;;37.13;20.87;;;6.50;99.90;;;;;;5020724;28;20060;-80
2022/04/16 01:57:26;;;;;;;38.73;22.47;;;6.50;99.90;;;;;;5019401;28;20033;-80
2022/04/16 01:59:54;;;;;;;38.83;20.77;;;6.50;99.90;;;;;;5000651;28;20045;-80
2022/04/16 02:02:20;;;;;;;38.47;21.00;;;6.50;99.90;;;;;;5016032;28;20108;-80
2022/04/16 02:04:46;;;;;;;40.03;22.57;;;6.40;99.90;;;;;;5017130;28;20047;-80
2022/04/16 02:07:13;;;;;;;37.13;22.03;;;6.40;99.90;;;;;;5033970;28;20575;-80
2022/04/16 02:09:40;;;;;;;38.90;22.03;;;6.30;99.90;;;;;;5015392;28;20048;-82
2022/04/16 02:12:07;;;;;;;39.47;21.20;;;6.40;99.90;;;;;;5051206;28;20049;-79
2022/04/16 02:14:32;;;;;;;40.53;23.30;;;6.30;99.90;;;;;;5016128;28;20041;-79
2022/04/16 02:16:59;;;;;;;41.03;23.17;;;6.30;99.90;;;;;;5018220;28;20063;-79
2022/04/16 02:19:25;;;;;;;39.37;22.47;;;6.40;99.90;;;;;;5020434;28;20044;-79
2022/04/16 02:21:51;;;;;;;45.50;24.00;;;6.40;99.90;;;;;;5021318;28;20048;-79
2022/04/16 02:24:17;;;;;;;48.47;25.67;;;6.50;99.90;;;;;;5034056;28;20072;-80
2022/04/16 02:26:44;;;;;;;52.87;24.93;;;6.60;99.90;;;;;;5031162;28;20113;-79
2022/04/16 02:29:13;;;;;;;46.10;25.47;;;6.70;99.90;;;;;;5035999;28;20599;-80
2022/04/16 02:31:39;;;;;;;46.00;24.73;;;6.80;99.90;;;;;;5001446;28;20613;-80
2022/04/16 02:34:07;;;;;;;52.10;26.53;;;6.90;99.90;;;;;;5034170;28;20056;-79
2022/04/16 02:36:33;;;;;;;48.13;24.77;;;7.00;99.90;;;;;;5033104;28;20045;-80
2022/04/16 02:39:00;;;;;;;47.87;24.97;;;7.00;99.90;;;;;;5036975;28;20045;-79
2022/04/16 02:41:26;;;;;;;49.40;24.87;;;7.20;99.90;;;;;;5018732;28;20045;-80
2022/04/16 02:43:55;;;;;;;49.57;26.70;;;7.20;99.90;;;;;;5034492;28;20153;-80
2022/04/16 02:49:10;;;;;;;46.07;25.53;;;7.30;99.90;;;;;;5036086;28;20053;-80
2022/04/16 02:51:35;;;;;;;48.50;26.80;;;7.40;99.90;;;;;;5047851;28;20566;-80
2022/04/16 02:54:01;;;;;;;52.93;28.43;;;7.40;99.90;;;;;;5031718;28;20083;-80
2022/04/16 02:56:27;;;;;;;54.03;26.77;;;7.50;99.90;;;;;;5035649;28;20510;-80
2022/04/16 02:58:53;;;;;;;49.73;25.40;;;7.60;99.90;;;;;;5033947;28;20076;-79
2022/04/16 03:01:19;;;;;;;48.93;26.20;;;7.60;99.90;;;;;;5021885;28;20040;-80
2022/04/16 03:03:44;;;;;;;49.93;25.83;;;7.70;99.90;;;;;;5005028;28;20086;-80
2022/04/16 03:06:10;;;;;;;47.40;26.00;;;7.70;99.90;;;;;;5024228;28;20049;-80
2022/04/16 03:08:36;;;;;;;48.63;27.67;;;7.70;99.90;;;;;;5034035;28;20167;-80
2022/04/16 03:11:04;;;;;;;48.47;27.57;;;7.80;99.90;;;;;;5023349;28;20058;-81
2022/04/16 03:13:34;;;;;;;50.27;25.20;;;7.80;99.90;;;;;;5033856;28;20079;-80
2022/04/16 03:18:45;;;;;;;46.07;25.33;;;7.80;99.90;;;;;;5039245;28;20049;-80
2022/04/16 03:21:11;;;;;;;43.17;25.03;;;7.80;99.90;;;;;;5032744;28;20124;-80
2022/04/16 03:23:37;;;;;;;44.80;25.80;;;7.80;99.90;;;;;;5051327;28;20055;-80
2022/04/16 03:26:03;;;;;;;43.83;24.30;;;7.90;99.90;;;;;;5037382;28;20048;-80
2022/04/16 03:28:29;;;;;;;42.57;24.17;;;7.90;99.90;;;;;;5039082;28;20025;-79
2022/04/16 03:30:58;;;;;;;40.40;24.10;;;7.90;99.90;;;;;;5029636;28;20054;-81
2022/04/16 03:33:24;;;;;;;38.47;23.60;;;7.90;99.90;;;;;;5037573;28;20047;-81
2022/04/16 03:35:51;;;;;;;41.30;23.27;;;7.90;99.90;;;;;;5036692;28;20100;-81
2022/04/16 03:38:18;;;;;;;42.80;24.67;;;7.90;99.90;;;;;;5034585;28;20048;-81
2022/04/16 03:40:44;;;;;;;39.77;24.00;;;7.90;99.90;;;;;;5020565;28;20082;-80
2022/04/16 03:43:10;;;;;;;38.77;23.20;;;7.90;99.90;;;;;;5036363;28;20052;-81
2022/04/16 03:45:37;;;;;;;40.13;22.90;;;7.90;99.90;;;;;;5035864;28;20134;-81
2022/04/16 03:48:05;;;;;;;40.60;23.43;;;7.90;99.90;;;;;;5035554;28;20059;-79
2022/04/16 03:50:32;;;;;;;34.93;21.87;;;7.90;99.90;;;;;;5026031;28;20056;-79
2022/04/16 03:52:58;;;;;;;37.30;23.53;;;7.90;99.90;;;;;;5032432;28;20044;-79
2022/04/16 04:01:01;;;;;;;36.13;21.37;;;7.90;99.90;;;;;;5046885;28;20088;-80
2022/04/16 04:03:27;;;;;;;36.00;20.63;;;7.90;99.90;;;;;;5033504;28;20088;-78
2022/04/16 04:05:55;;;;;;;33.83;20.70;;;7.80;99.90;;;;;;5012728;28;20041;-79
2022/04/16 04:08:22;;;;;;;34.93;20.97;;;7.80;99.90;;;;;;5034051;28;20045;-79
2022/04/16 04:10:48;;;;;;;32.47;20.67;;;7.80;99.90;;;;;;5032697;28;20052;-78
2022/04/16 04:13:16;;;;;;;31.17;19.67;;;7.80;99.90;;;;;;5014100;28;20042;-79
2022/04/16 04:15:42;;;;;;;34.90;21.27;;;7.80;99.90;;;;;;5047123;28;20060;-79
2022/04/16 04:18:08;;;;;;;34.27;20.37;;;7.80;99.90;;;;;;5014338;28;20132;-78
2022/04/16 04:20:35;;;;;;;34.83;20.47;;;7.70;99.90;;;;;;5030838;28;20122;-78
2022/04/16 04:23:03;;;;;;;31.47;18.87;;;7.70;99.90;;;;;;5020465;28;20041;-78
2022/04/16 04:25:28;;;;;;;34.03;19.73;;;7.60;99.90;;;;;;5028988;28;20128;-79
2022/04/16 04:27:54;;;;;;;32.93;19.37;;;7.70;99.90;;;;;;5034739;28;20075;-81
2022/04/16 04:30:20;;;;;;;35.23;19.57;;;7.60;99.90;;;;;;5000392;28;20116;-79
2022/04/16 04:32:46;;;;;;;33.33;20.07;;;7.60;99.90;;;;;;5016224;28;20097;-79
2022/04/16 04:35:12;;;;;;;30.90;19.23;;;7.60;99.90;;;;;;5032570;28;20128;-79
2022/04/16 04:37:38;;;;;;;32.73;19.23;;;7.60;99.90;;;;;;5005797;28;20045;-79
2022/04/16 04:40:04;;;;;;;32.80;18.67;;;7.60;99.90;;;;;;5026806;28;20048;-79
2022/04/16 04:42:33;;;;;;;36.90;19.67;;;7.60;99.90;;;;;;5031745;28;20041;-79
2022/04/16 04:45:05;;;;;;;29.77;18.60;;;7.60;99.90;;;;;;5048936;28;20044;-79
2022/04/16 04:47:31;;;;;;;33.10;17.67;;;7.60;99.90;;;;;;5047727;28;20076;-80
2022/04/16 04:49:57;;;;;;;31.83;18.57;;;7.60;99.90;;;;;;5014581;28;20056;-79
2022/04/16 04:52:26;;;;;;;29.43;18.37;;;7.60;99.90;;;;;;4996891;28;20108;-79
2022/04/16 04:55:00;;;;;;;29.93;17.23;;;7.60;99.90;;;;;;5031868;28;20065;-79
2022/04/16 04:57:26;;;;;;;29.57;16.80;;;7.60;99.90;;;;;;5029370;28;20076;-79
2022/04/16 04:59:52;;;;;;;28.80;17.10;;;7.60;99.90;;;;;;5027169;28;20056;-79
2022/04/16 05:02:18;;;;;;;29.03;16.70;;;7.70;99.90;;;;;;4998340;28;20501;-79
2022/04/16 05:04:44;;;;;;;28.07;16.47;;;7.70;99.90;;;;;;5005377;28;20052;-79
2022/04/16 05:07:10;;;;;;;30.13;17.13;;;7.70;99.90;;;;;;5000428;28;20108;-79
2022/04/16 05:09:37;;;;;;;29.67;16.07;;;7.70;99.90;;;;;;4999302;28;20075;-79
2022/04/16 05:12:03;;;;;;;29.63;15.80;;;7.70;99.90;;;;;;5020648;28;20595;-79
2022/04/16 05:14:29;;;;;;;26.43;14.30;;;7.70;99.90;;;;;;5022149;28;20102;-79
2022/04/16 05:16:55;;;;;;;25.53;14.40;;;7.70;99.90;;;;;;5004817;28;20041;-79
2022/04/16 05:19:21;;;;;;;24.20;15.37;;;7.80;99.90;;;;;;5013265;28;20147;-79
2022/04/16 05:21:47;;;;;;;27.67;15.30;;;7.80;99.90;;;;;;4998645;28;20041;-81
2022/04/16 05:24:13;;;;;;;24.23;14.60;;;7.80;99.90;;;;;;5055869;28;20052;-78
2022/04/16 05:26:39;;;;;;;22.30;13.80;;;7.80;99.90;;;;;;5020984;28;20384;-78
2022/04/16 05:29:05;;;;;;;24.23;14.00;;;7.80;99.90;;;;;;5019747;28;20042;-78
2022/04/16 05:31:32;;;;;;;22.30;13.87;;;7.90;99.90;;;;;;5018803;28;20057;-79
2022/04/16 05:36:43;;;;;;;22.37;13.00;;;7.80;99.90;;;;;;5035608;28;20072;-82
2022/04/16 05:39:09;;;;;;;21.57;13.30;;;7.90;99.90;;;;;;5020406;28;20056;-80
2022/04/16 05:41:35;;;;;;;22.87;12.60;;;7.90;99.90;;;;;;5020765;28;20127;-77
2022/04/16 05:44:02;;;;;;;22.20;12.27;;;7.90;99.90;;;;;;5035038;28;20048;-76
2022/04/16 05:46:28;;;;;;;22.67;13.17;;;7.80;99.90;;;;;;5018304;28;20423;-74
2022/04/16 05:48:54;;;;;;;23.00;13.17;;;7.80;99.90;;;;;;5037989;28;20076;-77
2022/04/16 05:51:21;;;;;;;24.53;14.00;;;7.90;99.90;;;;;;5016644;28;20122;-76
2022/04/16 05:53:48;;;;;;;23.13;13.13;;;7.90;99.90;;;;;;5021717;28;20041;-77
2022/04/16 05:56:14;;;;;;;21.57;12.70;;;7.90;99.90;;;;;;5004505;28;20049;-77
2022/04/16 05:58:43;;;;;;;26.73;15.03;;;8.00;99.90;;;;;;5035301;28;20043;-76
2022/04/16 06:01:10;;;;;;;22.50;13.77;;;7.90;99.90;;;;;;5031835;28;20659;-76
2022/04/16 06:03:39;;;;;;;23.67;12.07;;;7.90;99.90;;;;;;5033737;28;20060;-77
2022/04/16 06:06:14;;;;;;;22.83;13.40;;;8.00;99.90;;;;;;5036035;28;20061;-78
2022/04/16 06:08:40;;;;;;;22.27;12.27;;;8.00;99.90;;;;;;5010040;28;20080;-76
2022/04/16 06:11:06;;;;;;;21.80;12.57;;;8.00;99.90;;;;;;5020118;28;20037;-76
2022/04/16 06:13:32;;;;;;;21.23;13.00;;;8.00;99.90;;;;;;5053599;28;20041;-76
2022/04/16 06:15:58;;;;;;;19.80;12.43;;;8.10;99.90;;;;;;5021229;28;20041;-76
2022/04/16 06:18:24;;;;;;;20.47;13.10;;;8.10;99.90;;;;;;5019407;28;20105;-76
2022/04/16 06:20:50;;;;;;;24.13;13.00;;;8.20;99.90;;;;;;5036806;28;20080;-76
2022/04/16 06:23:19;;;;;;;20.47;12.50;;;8.20;99.90;;;;;;5021590;28;20084;-76
2022/04/16 06:25:45;;;;;;;23.03;13.37;;;8.20;99.90;;;;;;5036407;28;20091;-76
2022/04/16 06:28:11;;;;;;;20.97;12.23;;;8.10;99.90;;;;;;5015430;28;20053;-76
2022/04/16 06:30:36;;;;;;;22.97;12.73;;;8.10;99.90;;;;;;5033454;28;20044;-76
2022/04/16 06:33:02;;;;;;;18.87;12.17;;;8.10;99.90;;;;;;5020904;28;20064;-76
2022/04/16 06:35:28;;;;;;;21.20;12.30;;;8.10;99.90;;;;;;5034085;28;20513;-76
2022/04/16 06:37:54;;;;;;;19.53;11.43;;;8.20;99.90;;;;;;4994012;28;20056;-76
2022/04/16 06:40:20;;;;;;;19.20;12.43;;;8.30;99.90;;;;;;5021977;28;20041;-76
2022/04/16 06:42:46;;;;;;;23.60;11.63;;;8.40;99.90;;;;;;5035167;28;20492;-77
2022/04/16 06:45:12;;;;;;;20.83;11.87;;;8.50;99.90;;;;;;5041194;28;20115;-79
2022/04/16 06:47:38;;;;;;;20.60;12.33;;;8.50;99.90;;;;;;5036872;28;20052;-77
2022/04/16 06:50:05;;;;;;;19.30;11.40;;;8.60;99.90;;;;;;5019694;28;20045;-78
2022/04/16 06:52:31;;;;;;;21.43;11.90;;;8.60;99.90;;;;;;5038017;28;20143;-77
2022/04/16 06:54:57;;;;;;;20.00;11.67;;;8.70;99.90;;;;;;5034992;28;20046;-78
2022/04/16 06:57:24;;;;;;;17.60;11.33;;;8.70;99.90;;;;;;5019080;28;20092;-78
2022/04/16 06:59:50;;;;;;;21.13;11.80;;;8.80;99.90;;;;;;5023152;28;20147;-78
2022/04/16 07:02:16;;;;;;;20.10;11.57;;;8.90;99.90;;;;;;5029570;28;20080;-78
2022/04/16 07:04:42;;;;;;;19.30;11.07;;;9.00;99.90;;;;;;5039150;28;20045;-78
2022/04/16 07:07:10;;;;;;;16.47;10.00;;;9.00;99.90;;;;;;5039364;28;20072;-78
2022/04/16 07:09:40;;;;;;;16.00;9.70;;;9.00;99.90;;;;;;5038481;28;20041;-78
2022/04/16 07:12:10;;;;;;;13.50;8.60;;;9.10;99.90;;;;;;5038261;28;20048;-79
2022/04/16 07:14:39;;;;;;;15.87;8.57;;;9.10;99.90;;;;;;5054356;28;20057;-80
2022/04/16 07:17:06;;;;;;;13.10;8.40;;;9.10;99.90;;;;;;5038320;28;20053;-79
2022/04/16 07:19:33;;;;;;;12.50;7.23;;;9.10;99.90;;;;;;5039388;28;20067;-79
2022/04/16 07:21:59;;;;;;;11.63;6.83;;;9.20;99.90;;;;;;5011715;28;20040;-79
2022/04/16 07:24:25;;;;;;;10.47;5.60;;;9.20;99.90;;;;;;5037322;28;20120;-79
2022/04/16 07:26:53;;;;;;;7.67;4.90;;;9.30;99.90;;;;;;5038868;28;20084;-79
2022/04/16 07:29:28;;;;;;;10.83;5.37;;;9.30;99.90;;;;;;5022042;28;20049;-79
2022/04/16 07:31:54;;;;;;;8.63;5.53;;;9.40;99.90;;;;;;5036337;28;20115;-79
2022/04/16 07:34:20;;;;;;;8.53;4.97;;;9.40;99.90;;;;;;5018815;28;20044;-79
2022/04/16 07:36:46;;;;;;;7.87;5.17;;;9.50;99.90;;;;;;5023286;28;20097;-79
2022/04/16 07:39:13;;;;;;;6.90;4.70;;;9.50;99.90;;;;;;5035327;28;20088;-79
2022/04/16 07:41:39;;;;;;;10.73;5.03;;;9.50;99.90;;;;;;5037671;28;20078;-79
2022/04/16 07:44:05;;;;;;;7.40;4.47;;;9.60;99.90;;;;;;5055377;28;20469;-79
2022/04/16 07:46:33;;;;;;;7.47;4.70;;;9.60;99.90;;;;;;5038163;28;20049;-79
2022/04/16 07:48:59;;;;;;;6.50;4.47;;;9.70;99.90;;;;;;5022511;28;20097;-79
2022/04/16 07:51:25;;;;;;;9.67;5.20;;;9.80;99.90;;;;;;5021804;28;20098;-79
2022/04/16 07:53:52;;;;;;;7.53;4.70;;;9.90;99.90;;;;;;5022953;28;20045;-79
2022/04/16 07:56:18;;;;;;;8.47;4.70;;;9.90;99.90;;;;;;5017111;28;20427;-79
2022/04/16 07:58:44;;;;;;;7.30;5.00;;;10.00;99.90;;;;;;5022064;28;20096;-79
2022/04/16 08:01:10;;;;;;;7.77;5.23;;;10.10;99.90;;;;;;5054920;28;20056;-79
2022/04/16 08:03:35;;;;;;;7.57;5.20;;;10.20;99.90;;;;;;5048713;28;20059;-78
2022/04/16 08:06:01;;;;;;;8.50;5.20;;;10.20;99.90;;;;;;5018954;28;20045;-79
2022/04/16 08:08:27;;;;;;;11.07;5.77;;;10.20;99.90;;;;;;5021012;28;20093;-80
2022/04/16 08:10:53;;;;;;;10.47;5.60;;;10.30;99.90;;;;;;5041869;28;20047;-79
2022/04/16 08:13:22;;;;;;;6.43;4.53;;;10.30;99.90;;;;;;5021173;28;20041;-80
2022/04/16 08:15:48;;;;;;;8.53;4.70;;;10.40;99.90;;;;;;5038197;28;20045;-79
2022/04/16 08:18:14;;;;;;;8.00;4.80;;;10.50;99.90;;;;;;5035051;28;20045;-79
2022/04/16 08:20:40;;;;;;;7.40;4.63;;;10.60;99.90;;;;;;5054129;28;20140;-80
2022/04/16 08:23:06;;;;;;;9.53;4.60;;;10.70;99.90;;;;;;5032279;28;20041;-80
2022/04/16 08:28:03;;;;;;;7.40;5.00;;;10.80;99.90;;;;;;5056157;28;20052;-80
2022/04/16 08:30:29;;;;;;;7.03;4.30;;;10.80;99.90;;;;;;5037296;28;20120;-79
2022/04/16 08:32:55;;;;;;;7.90;4.77;;;10.90;99.90;;;;;;5019308;28;20045;-79
2022/04/16 08:35:21;;;;;;;9.07;4.87;;;11.10;99.90;;;;;;5020828;28;20072;-80
2022/04/16 08:37:48;;;;;;;6.03;3.90;;;11.30;99.90;;;;;;5036610;28;20535;-80
2022/04/16 08:40:15;;;;;;;7.10;4.67;;;11.30;99.90;;;;;;5021905;28;20122;-80
2022/04/16 08:42:43;;;;;;;5.73;4.13;;;11.30;99.90;;;;;;5049722;28;20108;-80
2022/04/16 08:45:10;;;;;;;6.73;4.10;;;11.40;99.90;;;;;;5034738;28;20139;-79
2022/04/16 08:47:38;;;;;;;6.20;3.90;;;11.40;99.90;;;;;;5033594;28;20471;-80
2022/04/16 08:50:09;;;;;;;5.40;3.63;;;11.50;99.90;;;;;;5037010;28;20042;-80
2022/04/16 08:52:37;;;;;;;5.90;3.22;;;11.70;99.90;;;;;;5029261;28;20095;-79
2022/04/16 08:55:09;;;;;;;6.67;3.67;;;11.70;99.90;;;;;;5021097;28;20033;-80
2022/04/16 08:57:35;;;;;;;;;;;11.90;99.90;;;;;;5032244;28;20071;-80
2022/04/16 09:00:00;;;;;;;6.93;3.50;;;11.80;97.00;;;;;;5036354;28;19921;-80
2022/04/16 09:02:28;;;;;;;7.07;3.60;;;11.90;99.90;;;;;;5020191;28;20045;-80
2022/04/16 09:05:08;;;;;;;7.23;3.93;;;12.00;99.90;;;;;;5035161;28;20052;-80
2022/04/16 09:07:49;;;;;;;6.20;3.83;;;12.20;99.90;;;;;;5037425;28;20041;-80
2022/04/16 09:10:15;;;;;;;6.47;3.50;;;12.30;99.90;;;;;;5036561;28;20553;-80
2022/04/16 09:12:41;;;;;;;6.10;3.90;;;12.30;99.90;;;;;;5024417;28;20529;-80
2022/04/16 09:15:09;;;;;;;4.40;3.20;;;12.40;99.90;;;;;;5034693;28;20055;-80
2022/04/16 09:17:35;;;;;;;3.67;1.80;;;12.40;99.90;;;;;;5036383;28;20142;-80
2022/04/16 09:20:01;;;;;;;3.40;2.50;;;12.40;96.40;;;;;;5037263;28;20515;-80
2022/04/16 09:22:34;;;;;;;4.60;2.10;;;12.50;94.40;;;;;;5017941;28;20041;-80
2022/04/16 09:25:00;;;;;;;4.27;2.20;;;12.60;77.80;;;;;;5033545;28;20049;-80
2022/04/16 09:27:26;;;;;;;4.50;2.40;;;12.60;91.30;;;;;;5021192;28;20060;-80
2022/04/16 09:29:55;;;;;;;4.17;2.50;;;12.70;91.70;;;;;;5019901;28;20788;-80
2022/04/16 09:32:25;;;;;;;2.53;2.10;;;12.80;89.50;;;;;;5036524;28;20431;-80
2022/04/16 09:34:52;;;;;;;3.00;2.13;;;13.00;91.00;;;;;;5054503;28;20048;-80
2022/04/16 09:37:18;;;;;;;2.83;1.97;;;13.00;83.40;;;;;;5034784;28;20053;-80
2022/04/16 09:39:44;;;;;;;3.23;1.80;;;13.10;85.30;;;;;;5035367;28;20100;-80
2022/04/16 09:42:10;;;;;;;2.47;1.70;;;13.20;83.10;;;;;;5052720;28;20076;-80
2022/04/16 09:44:35;;;;;;;2.10;1.67;;;13.30;77.80;;;;;;5019590;28;20132;-80
2022/04/16 09:47:03;;;;;;;3.57;2.00;;;13.30;75.90;;;;;;4996704;28;20033;-78
2022/04/16 09:49:33;;;;;;;3.67;2.10;;;13.30;74.30;;;;;;5052827;28;20041;-80
2022/04/16 09:52:03;;;;;;;3.07;1.77;;;13.40;73.90;;;;;;5035698;28;20045;-80
2022/04/16 09:54:31;;;;;;;3.40;1.60;;;13.40;71.60;;;;;;5052211;28;20029;-79
2022/04/16 09:57:01;;;;;;;3.23;1.77;;;13.50;72.30;;;;;;5035513;28;20048;-81
2022/04/16 09:59:34;;;;;;;2.07;1.47;;;13.50;68.70;;;;;;5036219;28;20083;-80
2022/04/16 10:02:01;;;;;;;1.50;1.20;;;13.40;66.30;;;;;;5038913;28;20052;-80
2022/04/16 10:04:29;;;;;;;1.53;1.30;;;13.50;68.80;;;;;;5025728;28;20165;-80
2022/04/16 10:06:55;;;;;;;1.73;1.20;;;13.60;67.40;;;;;;5037119;28;20045;-80
2022/04/16 10:09:24;;;;;;;1.67;1.13;;;13.70;66.30;;;;;;5008075;28;20227;-81
2022/04/16 10:15:04;;;;;;;1.47;1.20;;;14.00;60.90;;;;;;5042074;28;20045;-81
2022/04/16 10:17:35;;;;;;;3.07;1.20;;;14.00;59.40;;;;;;5054112;28;20131;-80
2022/04/16 10:20:10;;;;;;;1.52;1.02;;;13.90;61.00;;;;;;5040245;28;20048;-80
2022/04/16 10:22:36;;;;;;;3.70;1.27;;;14.00;61.30;;;;;;5038473;28;20049;-80
2022/04/16 10:25:03;;;;;;;1.20;1.10;;;14.00;61.80;;;;;;5038643;28;20045;-80
2022/04/16 10:27:42;;;;;;;2.17;1.10;;;14.20;62.70;;;;;;5021039;28;20045;-80
2022/04/16 10:30:11;;;;;;;1.73;1.23;;;14.40;62.30;;;;;;5052492;28;20044;-80
2022/04/16 10:32:43;;;;;;;1.30;1.20;;;14.50;61.50;;;;;;5074686;28;20056;-80
2022/04/16 10:35:17;;;;;;;2.78;1.30;;;14.40;58.30;;;;;;5052671;28;20123;-80
2022/04/16 10:37:48;;;;;;;1.55;1.35;;;14.50;59.80;;;;;;5021904;28;20052;-80
2022/04/16 10:40:17;;;;;;;1.40;1.10;;;14.60;60.40;;;;;;5038662;28;20051;-80
2022/04/16 10:43:01;;;;;;;2.95;1.20;;;14.60;59.80;;;;;;5033393;28;20182;-80
2022/04/16 10:45:27;;;;;;;3.53;1.20;;;14.70;56.50;;;;;;5043249;28;20053;-80
2022/04/16 10:47:55;;;;;;;1.70;1.10;;;14.60;58.90;;;;;;5021849;28;20044;-80
2022/04/16 10:50:22;;;;;;;1.65;1.20;;;14.60;58.70;;;;;;5055398;28;20058;-80
2022/04/16 10:52:55;;;;;;;1.58;0.90;;;14.50;57.80;;;;;;5041161;28;20055;-80
2022/04/16 10:55:29;;;;;;;1.48;1.02;;;14.50;56.90;;;;;;5034785;28;20048;-80
2022/04/16 10:58:16;;;;;;;1.15;0.90;;;14.40;56.40;;;;;;5027460;28;20470;-80
2022/04/16 11:00:46;;;;;;;2.50;1.30;;;14.50;54.40;;;;;;5032913;28;20540;-80
2022/04/16 11:03:28;;;;;;;1.55;1.25;;;14.50;56.70;;;;;;5029931;28;20033;-80
2022/04/16 11:06:04;;;;;;;1.20;1.10;;;14.60;56.90;;;;;;5034793;28;20382;-80
2022/04/16 11:08:34;;;;;;;1.20;1.10;;;14.70;55.80;;;;;;5030766;28;20046;-80
2022/04/16 11:11:02;;;;;;;1.83;0.93;;;14.80;56.10;;;;;;5036303;28;20041;-80
2022/04/16 11:13:48;;;;;;;1.02;0.93;;;14.80;54.30;;;;;;5051366;28;20100;-80
2022/04/16 11:16:20;;;;;;;1.23;1.13;;;14.80;51.50;;;;;;5050723;28;20053;-80
2022/04/16 11:18:47;;;;;;;1.15;1.05;;;14.90;54.40;;;;;;5016966;28;20134;-80
2022/04/16 11:21:22;;;;;;;1.60;1.10;;;14.90;54.10;;;;;;5035961;28;20113;-80
2022/04/16 11:23:50;;;;;;;2.00;1.15;;;15.00;53.20;;;;;;5038474;28;20445;-80
2022/04/16 11:34:43;;;;;;;2.33;1.20;;;15.20;53.20;;;;;;5036683;28;20049;-80
2022/04/16 11:37:09;;;;;;;4.88;1.38;;;15.10;52.50;;;;;;5036109;28;20064;-80
2022/04/16 11:39:35;;;;;;;2.53;1.50;;;15.20;53.20;;;;;;5037915;28;20071;-80
2022/04/16 11:42:10;;;;;;;2.25;1.30;;;15.30;54.70;;;;;;5022206;28;20037;-80
2022/04/16 11:44:40;;;;;;;2.42;1.25;;;15.30;53.50;;;;;;5037711;28;20053;-80
2022/04/16 11:47:20;;;;;;;2.35;1.20;;;15.30;53.90;;;;;;5035475;28;20575;-80
2022/04/16 11:49:53;;;;;;;3.63;1.20;;;15.40;53.40;;;;;;5040335;28;20052;-80
2022/04/16 11:52:31;;;;;;;2.90;1.45;;;15.40;52.40;;;;;;5034673;28;20133;-80
2022/04/16 11:55:04;;;;;;;2.08;1.25;;;15.40;52.60;;;;;;5054714;28;20076;-80
2022/04/16 11:57:31;;;;;;;2.20;1.20;;;15.50;51.80;;;;;;5070621;28;20045;-79
2022/04/16 12:00:08;;;;;;;1.88;1.50;;;15.40;51.90;;;;;;5032969;28;20049;-80
2022/04/16 12:02:38;;;;;;;2.90;1.33;;;15.40;51.20;;;;;;5053300;28;20163;-80
2022/04/16 12:05:11;;;;;;;3.28;1.25;;;15.40;51.80;;;;;;5037662;28;20104;-81
2022/04/16 12:07:39;;;;;;;1.02;1.00;;;15.50;51.40;;;;;;5036345;28;20053;-80
2022/04/16 12:10:05;;;;;;;1.48;1.38;;;15.50;51.10;;;;;;5037108;28;20057;-80
2022/04/16 12:12:46;;;;;;;1.65;1.20;;;15.60;51.10;;;;;;5037735;28;20045;-80
2022/04/16 12:15:11;;;;;;;1.50;1.10;;;15.70;49.10;;;;;;5054916;28;20215;-80
2022/04/16 12:17:43;;;;;;;2.83;1.30;;;15.60;50.00;;;;;;5020947;28;20045;-80
2022/04/16 12:20:11;;;;;;;2.17;1.25;;;15.60;50.30;;;;;;5036856;28;20057;-80
2022/04/16 12:22:52;;;;;;;2.65;1.10;;;15.70;51.40;;;;;;5021900;28;20055;-80
2022/04/16 12:25:23;;;;;;;4.95;1.77;;;15.70;49.00;;;;;;5037260;28;20048;-80
2022/04/16 12:27:54;;;;;;;4.90;1.20;;;15.80;50.70;;;;;;5037640;28;20587;-80
2022/04/16 12:30:35;;;;;;;2.83;1.20;;;15.90;51.70;;;;;;5020552;28;20041;-80
2022/04/16 12:33:11;;;;;;;1.35;1.25;;;16.10;50.50;;;;;;5036862;28;20044;-80
2022/04/16 12:35:46;;;;;;;2.38;1.20;;;16.10;49.80;;;;;;5036117;28;20404;-80
2022/04/16 12:38:15;;;;;;;3.13;1.48;;;16.20;48.20;;;;;;5020673;28;20044;-80
2022/04/16 12:40:42;;;;;;;3.10;1.50;;;16.20;50.40;;;;;;5039117;28;20072;-80
2022/04/16 12:43:08;;;;;;;3.08;1.30;;;16.10;49.90;;;;;;5036925;28;20075;-80
2022/04/16 12:45:34;;;;;;;3.22;1.30;;;16.00;49.70;;;;;;5021366;28;20036;-80
2022/04/16 12:48:00;;;;;;;1.67;1.30;;;16.00;49.80;;;;;;5021387;28;20062;-80
2022/04/16 12:50:27;;;;;;;1.98;1.10;;;16.10;51.00;;;;;;5036217;28;20171;-80
2022/04/16 12:52:53;;;;;;;2.60;1.10;;;16.20;50.30;;;;;;5049611;28;20077;-80
2022/04/16 12:55:20;;;;;;;1.52;1.23;;;16.30;50.30;;;;;;5028910;28;20046;-79
2022/04/16 12:57:47;;;;;;;1.35;1.17;;;16.30;49.60;;;;;;5016436;28;20083;-80
2022/04/16 13:00:14;;;;;;;2.15;1.17;;;16.50;50.30;;;;;;5020573;28;20064;-80
2022/04/16 13:02:43;;;;;;;2.45;1.20;;;16.40;49.40;;;;;;5031043;28;20053;-80
2022/04/16 13:05:10;;;;;;;1.17;1.00;;;16.50;49.90;;;;;;5029804;28;20049;-80
2022/04/16 13:07:36;;;;;;;1.83;1.10;;;16.50;49.60;;;;;;5019429;28;20049;-80
2022/04/16 13:10:07;;;;;;;1.73;1.08;;;16.50;48.90;;;;;;5025666;28;20037;-80
2022/04/16 13:12:33;;;;;;;1.75;1.10;;;16.50;48.20;;;;;;5032605;28;20199;-80
2022/04/16 13:14:59;;;;;;;1.25;1.10;;;16.30;48.40;;;;;;5004415;28;20041;-80